createdAt,value
2022-10-16T00:01:31.666Z,0.10
2022-10-16T00:03:59.113Z,0.10
2022-10-16T00:06:26.274Z,0.20
2022-10-16T00:08:53.026Z,0.20
2022-10-16T00:11:21.035Z,0.10
2022-10-16T00:13:47.799Z,0.30
2022-10-16T00:16:14.963Z,0.15
2022-10-16T00:18:41.317Z,0.10
2022-10-16T00:21:09.158Z,0.00
2022-10-16T00:23:35.975Z,0.20
2022-10-16T00:26:04.050Z,0.00
2022-10-16T00:28:30.735Z,0.03
2022-10-16T00:30:57.327Z,0.47
2022-10-16T00:33:23.798Z,0.20
2022-10-16T00:35:51.091Z,0.60
2022-10-16T00:38:17.519Z,0.05
2022-10-16T00:40:43.871Z,0.10
2022-10-16T00:43:14.347Z,0.43
2022-10-16T00:45:41.098Z,0.10
2022-10-16T00:48:08.973Z,0.08
2022-10-16T00:50:35.640Z,0.43
2022-10-16T00:53:02.831Z,0.00
2022-10-16T00:55:31.165Z,0.13
2022-10-16T00:57:58.279Z,0.08
2022-10-16T01:00:26.095Z,0.17
2022-10-16T01:02:53.273Z,0.00
2022-10-16T01:05:19.856Z,0.10
2022-10-16T01:07:49.001Z,0.10
2022-10-16T01:10:30.805Z,0.00
2022-10-16T01:13:14.549Z,0.20
2022-10-16T01:15:53.128Z,0.00
2022-10-16T01:18:22.410Z,0.00
2022-10-16T01:20:52.385Z,0.10
2022-10-16T01:23:31.862Z,0.10
2022-10-16T01:26:15.236Z,0.13
2022-10-16T01:28:52.562Z,0.35
2022-10-16T01:31:20.678Z,0.10
2022-10-16T01:33:49.129Z,0.00
2022-10-16T01:36:22.247Z,0.20
2022-10-16T01:38:50.703Z,0.20
2022-10-16T01:41:26.146Z,0.10
2022-10-16T01:44:04.641Z,0.52
2022-10-16T01:46:31.831Z,0.05
2022-10-16T01:48:58.806Z,0.20
2022-10-16T01:51:25.860Z,0.00
2022-10-16T01:53:54.455Z,0.08
2022-10-16T01:56:23.485Z,0.10
2022-10-16T01:58:52.250Z,0.00
2022-10-16T02:01:19.897Z,0.10
2022-10-16T02:03:47.338Z,0.20
2022-10-16T02:06:13.819Z,0.00
2022-10-16T02:08:41.467Z,0.10
2022-10-16T02:11:07.853Z,0.00
2022-10-16T02:13:37.330Z,0.10
2022-10-16T02:16:03.774Z,0.00
2022-10-16T02:18:30.264Z,0.00
2022-10-16T02:20:59.927Z,0.00
2022-10-16T02:23:46.523Z,0.00
2022-10-16T02:26:14.506Z,0.10
2022-10-16T02:28:48.037Z,0.13
2022-10-16T02:31:17.602Z,0.13
2022-10-16T02:33:44.702Z,0.00
2022-10-16T02:36:11.390Z,0.50
2022-10-16T02:38:38.301Z,0.10
2022-10-16T02:41:05.309Z,0.10
2022-10-16T02:43:31.656Z,0.00
2022-10-16T02:45:57.954Z,0.22
2022-10-16T02:48:24.231Z,0.10
2022-10-16T02:50:50.594Z,0.10
2022-10-16T02:53:16.944Z,0.00
2022-10-16T02:55:43.355Z,0.13
2022-10-16T02:58:09.668Z,0.00
2022-10-16T03:00:36.897Z,0.00
2022-10-16T03:03:03.203Z,0.10
2022-10-16T03:05:29.629Z,0.00
2022-10-16T03:07:56.558Z,0.13
2022-10-16T03:10:22.853Z,0.00
2022-10-16T03:12:49.215Z,0.00
2022-10-16T03:15:15.570Z,0.08
2022-10-16T03:17:41.990Z,0.00
2022-10-16T03:20:08.479Z,0.00
2022-10-16T03:22:34.841Z,0.25
2022-10-16T03:25:01.201Z,0.00
2022-10-16T03:27:27.672Z,0.03
2022-10-16T03:29:54.275Z,0.00
2022-10-16T03:32:21.232Z,0.10
2022-10-16T03:34:47.582Z,0.17
2022-10-16T03:37:14.103Z,0.08
2022-10-16T03:39:40.382Z,0.00
2022-10-16T03:42:06.751Z,0.20
2022-10-16T03:44:33.086Z,0.30
2022-10-16T03:46:59.404Z,0.13
2022-10-16T03:49:25.752Z,0.05
2022-10-16T03:51:52.078Z,0.00
2022-10-16T03:54:18.543Z,0.00
2022-10-16T03:56:44.855Z,0.28
2022-10-16T03:59:11.184Z,0.00
2022-10-16T04:01:37.514Z,0.03
2022-10-16T04:04:03.849Z,0.00
2022-10-16T04:06:30.262Z,0.35
2022-10-16T04:08:57.149Z,0.10
2022-10-16T04:11:23.475Z,0.10
2022-10-16T04:13:49.778Z,0.10
2022-10-16T04:16:16.163Z,0.10
2022-10-16T04:18:42.449Z,0.30
2022-10-16T04:21:09.272Z,0.05
2022-10-16T04:23:35.672Z,0.30
2022-10-16T04:26:02.848Z,0.10
2022-10-16T04:28:29.461Z,0.10
2022-10-16T04:30:56.032Z,0.10
2022-10-16T04:33:22.342Z,0.15
2022-10-16T04:35:48.684Z,0.00
2022-10-16T04:38:14.985Z,0.10
2022-10-16T04:40:42.800Z,0.20
2022-10-16T04:43:09.212Z,0.40
2022-10-16T04:45:35.532Z,0.10
2022-10-16T04:48:02.240Z,0.10
2022-10-16T04:50:34.747Z,0.03
2022-10-16T04:53:02.650Z,0.00
2022-10-16T04:55:28.979Z,0.13
2022-10-16T04:57:55.292Z,0.20
2022-10-16T05:00:23.155Z,0.30
2022-10-16T05:02:51.220Z,0.00
2022-10-16T05:05:19.983Z,0.40
2022-10-16T05:07:50.537Z,0.45
2022-10-16T05:10:17.179Z,0.10
2022-10-16T05:12:43.544Z,0.10
2022-10-16T05:15:10.204Z,0.20
2022-10-16T05:17:38.901Z,0.10
2022-10-16T05:20:06.587Z,0.15
2022-10-16T05:22:32.951Z,0.10
2022-10-16T05:24:59.287Z,0.00
2022-10-16T05:27:25.827Z,0.08
2022-10-16T05:29:52.351Z,0.08
2022-10-16T05:32:19.249Z,0.13
2022-10-16T05:34:46.008Z,0.10
2022-10-16T05:37:12.664Z,0.10
2022-10-16T05:39:39.523Z,0.10
2022-10-16T05:42:06.396Z,0.00
2022-10-16T05:47:00.340Z,0.10
2022-10-16T05:49:26.633Z,0.08
2022-10-16T05:51:52.995Z,0.05
2022-10-16T05:54:19.689Z,0.00
2022-10-16T05:56:46.070Z,0.10
2022-10-16T05:59:12.379Z,0.17
2022-10-16T06:01:38.787Z,0.00
2022-10-16T06:04:05.353Z,0.00
2022-10-16T06:06:31.997Z,0.10
2022-10-16T06:08:58.677Z,0.10
2022-10-16T06:11:26.626Z,0.10
2022-10-16T06:13:53.555Z,0.10
2022-10-16T06:16:20.233Z,0.00
2022-10-16T06:18:47.003Z,0.08
2022-10-16T06:21:15.332Z,0.30
2022-10-16T06:23:41.856Z,0.10
2022-10-16T06:26:08.294Z,0.10
2022-10-16T06:28:34.871Z,0.10
2022-10-16T06:31:05.592Z,0.10
2022-10-16T06:33:34.527Z,0.10
2022-10-16T06:36:04.764Z,0.03
2022-10-16T06:38:31.371Z,0.00
2022-10-16T06:40:57.853Z,0.03
2022-10-16T06:43:24.220Z,0.30
2022-10-16T06:45:54.622Z,0.08
2022-10-16T06:48:21.262Z,0.22
2022-10-16T06:51:00.988Z,0.20
2022-10-16T06:53:28.257Z,0.40
2022-10-16T06:55:54.556Z,0.10
2022-10-16T06:58:20.994Z,0.10
2022-10-16T07:00:47.428Z,0.20
2022-10-16T07:03:14.064Z,0.25
2022-10-16T07:05:41.172Z,0.20
2022-10-16T07:08:07.924Z,0.10
2022-10-16T07:10:34.441Z,0.10
2022-10-16T07:13:00.835Z,0.20
2022-10-16T07:15:27.735Z,0.13
2022-10-16T07:17:54.300Z,0.10
2022-10-16T07:20:20.787Z,0.10
2022-10-16T07:22:47.120Z,0.10
2022-10-16T07:25:13.475Z,0.10
2022-10-16T07:27:39.789Z,0.03
2022-10-16T07:30:09.037Z,0.00
2022-10-16T07:32:35.662Z,0.30
2022-10-16T07:35:02.686Z,0.15
2022-10-16T07:37:29.276Z,0.20
2022-10-16T07:39:55.925Z,0.15
2022-10-16T07:42:22.376Z,0.00
2022-10-16T07:44:48.690Z,0.08
2022-10-16T07:47:15.144Z,0.17
2022-10-16T07:49:41.543Z,0.10
2022-10-16T07:52:33.310Z,0.35
2022-10-16T07:54:59.672Z,0.10
2022-10-16T07:57:26.086Z,0.03
2022-10-16T07:59:52.527Z,0.10
2022-10-16T08:02:18.863Z,0.03
2022-10-16T08:04:47.310Z,0.10
2022-10-16T08:07:14.387Z,0.10
2022-10-16T08:09:40.667Z,0.20
2022-10-16T08:12:07.023Z,0.05
2022-10-16T08:14:33.408Z,0.05
2022-10-16T08:16:59.787Z,0.00
2022-10-16T08:19:26.167Z,0.32
2022-10-16T08:21:52.502Z,0.20
2022-10-16T08:24:18.911Z,0.10
2022-10-16T08:26:45.326Z,0.13
2022-10-16T08:29:11.670Z,0.00
2022-10-16T08:31:38.038Z,0.10
2022-10-16T08:34:04.335Z,0.20
2022-10-16T08:36:30.680Z,0.10
2022-10-16T08:38:57.162Z,0.32
2022-10-16T08:41:27.144Z,0.25
2022-10-16T08:44:02.686Z,0.20
2022-10-16T08:46:50.691Z,0.00
2022-10-16T08:49:17.676Z,0.10
2022-10-16T08:51:44.428Z,0.30
2022-10-16T08:54:23.864Z,0.20
2022-10-16T08:56:50.226Z,0.20
2022-10-16T08:59:17.299Z,0.77
2022-10-16T09:01:48.063Z,0.20
2022-10-16T09:04:14.383Z,0.20
2022-10-16T09:06:48.272Z,0.22
2022-10-16T09:09:14.580Z,0.20
2022-10-16T09:11:52.763Z,0.10
2022-10-16T09:14:38.133Z,0.20
2022-10-16T09:17:13.847Z,0.20
2022-10-16T09:19:45.124Z,0.30
2022-10-16T09:22:18.907Z,0.20
2022-10-16T09:24:45.324Z,0.13
2022-10-16T09:27:13.292Z,0.30
2022-10-16T09:29:39.686Z,0.20
2022-10-16T09:32:18.368Z,0.52
2022-10-16T09:34:53.148Z,0.40
2022-10-16T09:37:20.151Z,0.38
2022-10-16T09:39:46.533Z,0.38
2022-10-16T09:42:17.532Z,0.57
2022-10-16T09:44:48.225Z,0.20
2022-10-16T09:47:14.486Z,0.15
2022-10-16T09:49:51.095Z,0.40
2022-10-16T09:52:17.807Z,0.70
2022-10-16T09:55:10.460Z,0.25
2022-10-16T09:57:36.847Z,0.28
2022-10-16T10:00:09.725Z,0.20
2022-10-16T10:02:37.154Z,0.40
2022-10-16T10:05:05.290Z,0.63
2022-10-16T10:07:35.985Z,0.30
2022-10-16T10:10:04.520Z,0.55
2022-10-16T10:12:33.555Z,0.60
2022-10-16T10:15:05.475Z,0.40
2022-10-16T10:17:32.054Z,0.30
2022-10-16T10:20:17.153Z,0.70
2022-10-16T10:22:46.667Z,0.63
2022-10-16T10:25:13.258Z,0.60
2022-10-16T10:27:51.828Z,0.65
2022-10-16T10:30:36.896Z,0.68
2022-10-16T10:33:22.787Z,0.35
2022-10-16T10:35:59.049Z,0.80
2022-10-16T10:38:34.030Z,0.70
2022-10-16T10:41:11.405Z,0.60
2022-10-16T10:43:53.882Z,0.80
2022-10-16T10:46:26.761Z,0.40
2022-10-16T10:49:25.806Z,0.30
2022-10-16T10:51:52.088Z,0.30
2022-10-16T10:54:21.159Z,0.65
2022-10-16T10:57:07.545Z,0.30
2022-10-16T10:59:33.896Z,0.32
2022-10-16T11:02:19.169Z,0.70
2022-10-16T11:04:54.662Z,0.85
2022-10-16T11:07:22.639Z,0.52
2022-10-16T11:09:50.546Z,0.65
2022-10-16T11:12:26.640Z,0.82
2022-10-16T11:15:02.180Z,0.80
2022-10-16T11:17:43.218Z,0.63
2022-10-16T11:20:15.520Z,0.45
2022-10-16T11:22:41.805Z,1.75
2022-10-16T11:25:17.136Z,0.80
2022-10-16T11:28:09.718Z,1.23
2022-10-16T11:30:45.517Z,2.13
2022-10-16T11:33:32.458Z,0.75
2022-10-16T11:36:21.934Z,0.40
2022-10-16T11:39:07.211Z,0.20
2022-10-16T11:41:42.300Z,0.77
2022-10-16T11:46:47.846Z,0.65
2022-10-16T11:49:25.295Z,0.68
2022-10-16T11:51:51.603Z,0.70
2022-10-16T11:54:17.965Z,1.17
2022-10-16T11:56:45.891Z,0.65
2022-10-16T11:59:24.249Z,1.08
2022-10-16T12:02:16.832Z,0.70
2022-10-16T12:04:46.382Z,0.52
2022-10-16T12:07:12.675Z,1.20
2022-10-16T12:09:39.916Z,0.45
2022-10-16T12:12:23.678Z,0.95
2022-10-16T12:15:22.245Z,0.40
2022-10-16T12:17:47.060Z,1.00
2022-10-16T12:20:13.382Z,0.75
2022-10-16T12:22:50.098Z,0.50
2022-10-16T12:25:21.869Z,1.15
2022-10-16T12:27:54.947Z,0.60
2022-10-16T12:30:25.711Z,0.88
2022-10-16T12:32:56.724Z,2.50
2022-10-16T12:35:24.771Z,0.88
2022-10-16T12:37:51.498Z,0.82
2022-10-16T12:40:26.826Z,0.98
2022-10-16T12:42:53.342Z,1.10
2022-10-16T12:45:27.458Z,0.80
2022-10-16T12:47:54.930Z,0.83
2022-10-16T12:50:40.311Z,2.47
2022-10-16T12:55:36.178Z,1.00
2022-10-16T12:58:10.643Z,1.10
2022-10-16T13:00:48.587Z,0.98
2022-10-16T13:03:24.064Z,0.80
2022-10-16T13:05:59.528Z,1.20
2022-10-16T13:08:28.871Z,1.85
2022-10-16T13:11:02.421Z,1.00
2022-10-16T13:13:28.697Z,1.05
2022-10-16T13:16:10.223Z,1.00
2022-10-16T13:18:44.843Z,1.30
2022-10-16T13:21:34.183Z,0.57
2022-10-16T13:24:12.528Z,0.80
2022-10-16T13:26:44.949Z,1.33
2022-10-16T13:29:11.448Z,0.60
2022-10-16T13:31:39.171Z,1.38
2022-10-16T13:34:06.682Z,1.05
2022-10-16T13:36:43.611Z,0.55
2022-10-16T13:39:21.478Z,1.20
2022-10-16T13:41:58.626Z,0.95
2022-10-16T13:44:25.081Z,1.27
2022-10-16T13:47:01.423Z,0.50
2022-10-16T13:49:27.804Z,1.60
2022-10-16T13:51:58.607Z,1.20
2022-10-16T13:54:25.807Z,0.70
2022-10-16T13:57:03.602Z,0.50
2022-10-16T13:59:36.674Z,0.73
2022-10-16T14:02:07.387Z,1.00
2022-10-16T14:04:34.163Z,1.67
2022-10-16T14:07:00.492Z,0.80
2022-10-16T14:09:28.316Z,1.17
2022-10-16T14:12:05.287Z,0.70
2022-10-16T14:14:35.528Z,1.00
2022-10-16T14:17:03.022Z,1.20
2022-10-16T14:19:30.679Z,0.65
2022-10-16T14:21:57.028Z,0.85
2022-10-16T14:24:28.742Z,0.75
2022-10-16T14:26:58.087Z,1.02
2022-10-16T14:29:26.088Z,1.00
2022-10-16T14:32:03.160Z,1.10
2022-10-16T14:34:34.560Z,0.60
2022-10-16T14:37:26.659Z,4.53
2022-10-16T14:39:54.899Z,1.40
2022-10-16T14:42:24.342Z,2.38
2022-10-16T14:44:53.744Z,1.73
2022-10-16T14:47:23.441Z,0.50
2022-10-16T14:49:49.798Z,1.65
2022-10-16T14:52:16.166Z,1.05
2022-10-16T14:57:28.918Z,0.43
2022-10-16T14:59:55.535Z,1.33
2022-10-16T15:02:21.823Z,0.70
2022-10-16T15:04:48.611Z,1.20
2022-10-16T15:07:15.108Z,0.43
2022-10-16T15:09:45.060Z,0.65
2022-10-16T15:12:15.315Z,1.45
2022-10-16T15:14:41.755Z,1.05
2022-10-16T15:17:10.127Z,0.82
2022-10-16T15:19:36.499Z,0.60
